ADDS TAF Board (Experimental) INFO Settings
IDs: Format: Expanded Condensed

KPHL - Philadelphia Intl, PA, US

Issued at 1723 UTC 30 May 2015
Updated at: 1830 UTC 30 May 2015
Time1754Z 30/19Z 30/20Z 30/21Z 30/22Z 30/23Z 31/00Z 31/01Z 31/02Z 31/03Z 31/04Z 31/05Z 31/06Z 31/07Z
Type OBS PRVL PRVL PRVL PRVL PRVL PRVL PRVL PRVL PRVL PRVL PRVL PRVL PRVL
VIS 10 >6 >6 >6 >6 >6 >6 >6 >6 >6 >6 >6 >6 >6
CIG -- 50 50 50 50 50 150 150 150 150 150 150 150 150
Cover SCT BKN BKN BKN BKN BKN BKN BKN BKN BKN BKN BKN BKN BKN
FltCat VFR VFR VFR VFR VFR VFR VFR VFR VFR VFR VFR VFR VFR VFR
WX -- -- -- -- -- -- -- -- -- -- -- -- -- --
WDir 190 210 210 210 210 210 190 190 190 190 190 190 190 190
WSpd 10 10 10 10 10 10 10 10 10 10 10 10 10 10
WGst -- 18 18 18 18 18 -- -- -- -- -- -- -- --
R08/26
XWnd -9 -7 -7 -7 -7 -7 -9 -9 -9 -9 -9 -9 -9 -9
XGst -- -13 -13 -13 -13 -13 -- -- -- -- -- -- -- --
HWnd -4 -7 -7 -7 -7 -7 -4 -4 -4 -4 -4 -4 -4 -4
HGst -- -13 -13 -13 -13 -13 -- -- -- -- -- -- -- --
R09/27
XWnd -9 -7 -7 -7 -7 -7 -9 -9 -9 -9 -9 -9 -9 -9
XGst -- -13 -13 -13 -13 -13 -- -- -- -- -- -- -- --
HWnd -4 -7 -7 -7 -7 -7 -4 -4 -4 -4 -4 -4 -4 -4
HGst -- -13 -13 -13 -13 -13 -- -- -- -- -- -- -- --
R17/35
XWnd -5 -8 -8 -8 -8 -8 -5 -5 -5 -5 -5 -5 -5 -5
XGst -- -14 -14 -14 -14 -14 -- -- -- -- -- -- -- --
HWnd 9 6 6 6 6 6 9 9 9 9 9 9 9 9
HGst -- 11 11 11 11 11 -- -- -- -- -- -- -- --

NOTE: TEMPO conditions in [brackets]. Keep in mind TEMPO conditions might be better (lower impact) than prevailing conditions.

Raw TAF
KPHL 301723Z 3018/3124 21010G18KT P6SM BKN050
  FM310000 19010KT P6SM SCT050 BKN150
  FM311000 19005KT 6SM BR SCT015
  FM311400 20008KT P6SM SCT040
  FM311900 20010KT P6SM VCSH BKN050


Raw METAR
KPHL 301754Z 19010KT 10SM SCT040 29/19 A3014 RMK AO2 SLP205 T02940189 10300 20217 58020
KPHL 301654Z 20008KT 10SM SCT040 29/19 A3016 RMK AO2 SLP213 T02890189
KPHL 301554Z 22011KT 10SM SCT025 28/19 A3018 RMK AO2 SLP220 T02780194

METAR Board
Radar Display
Forecast Discussion

TAF Board Legend

Potential Impact
Threat None Slight Moderate High
Visibility (sm) ≥5.1 5.1>X≥3 3>X≥1 <1
Ceiling (100 ft) ≥30.1 30.1>X≥10 10>X≥5 <5
Wind Speed (kt) <10 10≤X<20 20≤X<30 ≥30
Wind Gust (kt) <15 15≤X<25 25≤X<35 ≥35
Weather No Wx Reported VCTS,-TS,-FZRA,SN TS,FZRA +TS,+FZRA,+SN